Flight Track Log - Related Links

Times and Time Zones

All times are in EDT time to prevent confusion due to time zone crossing. See the AFL1471 flight status page for this flight to view local times or setup timezone preferences in your user account.

Time Position Orientation Groundspeed Altitude Reporting Facility
EDT Latitude Longitude Course Direction KTS MPH feet Rate Location/Type
Tue 09:31:40 AM 60.4625 67.7388 262° West 470 541 32,000  Level FlightAware ADS-B (USTR / TJM)
Tue 09:31:49 AM 60.4603 67.7078 262° West 471 542 32,000  Level FlightAware ADS-B (USTR / TJM)
Tue 09:31:53 AM 60.4589 67.6886 262° West 470 541 32,000  Level FlightAware ADS-B (USTR / TJM)
Tue 09:33:45 AM 60.4226 67.1966 262° West 470 541 32,000  Level FlightAware ADS-B (USTR / TJM)
Tue 09:34:08 AM 60.4146 67.0926 261° West 473 544 32,000  Level FlightAware ADS-B (USTR / TJM)
Tue 09:34:15 AM 60.4128 67.0684 262° West 471 542 32,000  Level FlightAware ADS-B (USTR / TJM)
Tue 09:34:42 AM 60.4030 66.9424 262° West 471 542 32,000  Level FlightAware ADS-B (USTR / TJM)
Tue 09:35:08 AM 60.3945 66.8340 261° West 473 544 32,000  Level FlightAware ADS-B (USTR / TJM)
Tue 09:35:15 AM 60.3917 66.7997 261° West 472 543 32,000  Level FlightAware ADS-B (USTR / TJM)
Tue 09:35:36 AM 60.3847 66.7116 261° West 472 543 32,000  Level FlightAware ADS-B (USTR / TJM)
Tue 09:36:45 AM 60.3599 66.4058 261° West 472 543 32,000  Level FlightAware ADS-B (USTR / TJM)
Tue 09:37:20 AM 60.3475 66.2561 261° West 472 543 32,000  Level FlightAware ADS-B (USTR / TJM)
Tue 09:37:29 AM 60.3446 66.2208 260° West 473 544 32,000  Level FlightAware ADS-B (USTR / TJM)
Tue 09:37:50 AM 60.3368 66.1283 261° West 473 544 32,000  Level FlightAware ADS-B (USTR / TJM)
Tue 09:38:09 AM 60.3300 66.0487 260° West 474 545 32,000  Level FlightAware ADS-B (USTR / TJM)
Tue 09:38:20 AM 60.3256 65.9977 261° West 473 544 32,000  Level FlightAware ADS-B (USTR / TJM)
Tue 09:38:48 AM 60.3152 65.8765 260° West 474 545 32,000  Level FlightAware ADS-B (USTR / TJM)
Tue 09:38:49 AM 60.3148 65.8727 261° West 474 545 32,000  Level FlightAware ADS-B (USTR / TJM)
Tue 09:39:04 AM 60.3091 65.8070 261° West 473 544 32,000  Level FlightAware ADS-B (USTR / TJM)
Tue 09:39:40 AM 60.3021 65.6481 275° West 471 542 32,000  Level FlightAware ADS-B (USTR / TJM)
Tue 09:39:47 AM 60.3040 65.6211 281° West 469 540 32,000  Level FlightAware ADS-B (USTR / TJM)
Tue 09:40:00 AM 60.3110 65.5675 288° West 467 537 32,000  Level FlightAware ADS-B (USTR / TJM)
Tue 09:40:20 AM 60.3199 65.4829 277° West 473 544 32,000  Level FlightAware ADS-B (USTR / TJM)
Tue 09:40:23 AM 60.3203 65.4697 275° West 475 547 32,000  Level FlightAware ADS-B (USTR / TJM)
Tue 09:40:40 AM 60.3189 65.3963 262° West 477 549 32,000  Level FlightAware ADS-B (USTR / TJM)
Tue 09:40:49 AM 60.3160 65.3656 257° West 478 550 32,000  Level FlightAware ADS-B (USTR / TJM)
Tue 09:41:19 AM 60.2989 65.2242 257° West 477 549 32,000  Level FlightAware ADS-B (USTR / TJM)
Tue 09:41:28 AM 60.2941 65.1845 256° West 478 550 32,000  Level FlightAware ADS-B (USTR / TJM)
Tue 09:41:49 AM 60.2839 65.1011 257° West 477 549 32,000  Level FlightAware ADS-B (USTR / TJM)
Tue 09:42:08 AM 60.2752 65.0305 256° West 476 548 32,000  Level FlightAware ADS-B (USTR / TJM)
Tue 09:42:15 AM 60.2692 64.9830 256° West 475 547 32,000  Level FlightAware ADS-B (USTR / TJM)
Tue 09:42:48 AM 60.2514 64.8418 256° West 476 548 32,000  Level FlightAware ADS-B (USTR / TJM)
Tue 09:42:50 AM 60.2504 64.8335 256° West 475 547 32,000  Level FlightAware ADS-B (USTR / TJM)
Tue 09:43:20 AM 60.2340 64.7056 256° West 478 550 32,000  Level FlightAware ADS-B (USTR / TJM)
Tue 09:43:27 AM 60.2319 64.6899 256° West 478 550 32,000  Level FlightAware ADS-B (USTR / TJM)
Tue 09:43:50 AM 60.2174 64.5765 256° West 478 550 32,000  Level FlightAware ADS-B (USTR / TJM)
Tue 09:44:09 AM 60.2073 64.4988 255° West 479 551 32,000  Level FlightAware ADS-B (USTR / TJM)
Tue 09:44:19 AM 60.2016 64.4547 256° West 478 550 32,000  Level FlightAware ADS-B (USTR / TJM)
Tue 09:44:48 AM 60.1850 64.3285 255° West 480 552 32,000  Level FlightAware ADS-B (USTR / TJM)
Tue 09:44:50 AM 60.1832 64.3148 256° West 480 552 32,000  Level FlightAware ADS-B (USTR / TJM)
Tue 09:45:20 AM 60.1670 64.1921 256° West 480 552 32,000  Level FlightAware ADS-B (USTR / TJM)
Tue 09:45:27 AM 60.1624 64.1571 255° West 481 554 32,000  Level FlightAware ADS-B (USTR / TJM)
Tue 09:45:58 AM 60.1459 64.0261 258° West 483 556 32,000  Level FlightAware ADS-B (USTR / TJM)
Tue 09:46:05 AM 60.1430 63.9960 259° West 484 557 32,000  Level FlightAware ADS-B (USTR / TJM)
Tue 09:46:30 AM 60.1356 63.8888 265° West 486 559 32,000  Level FlightAware ADS-B (USTR / TJM)
Tue 09:46:49 AM 60.1327 63.7999 268° West 486 559 32,000  Level FlightAware ADS-B (USTR / TJM)
Tue 09:47:05 AM 60.1326 63.7300 271° West 485 558 32,000 150 Level FlightAware ADS-B (USTR / TJM)
Tue 09:47:29 AM 60.1339 63.6318 271° West 483 556 32,100 343 Climbing FlightAware ADS-B (USTR / TJM)
Tue 09:47:40 AM 60.1344 63.5793 272° West 482 555 32,200 615 Climbing FlightAware ADS-B (USTR / TJM)
Tue 09:48:08 AM 60.1357 63.4512 271° West 484 557 32,500 828 Climbing FlightAware ADS-B (USTR / TJM)
Tue 09:48:09 AM 60.1358 63.4378 272° West 485 558 32,600 692 Climbing FlightAware ADS-B (USTR / TJM)
Tue 09:48:34 AM 60.1367 63.3344 272° West 486 559 32,800 462 Climbing FlightAware ADS-B (USTR / TJM)
Tue 09:48:48 AM 60.1372 63.2721 271° West 487 560 32,900 667 Climbing FlightAware ADS-B (USTR / TJM)
Tue 09:49:10 AM 60.1380 63.1631 271° West 491 565 33,200 600 Climbing FlightAware ADS-B (USTR / TJM)
Tue 09:49:28 AM 60.1386 63.0825 271° West 493 567 33,300 414 Climbing FlightAware ADS-B (USTR / TJM)
Tue 09:49:39 AM 60.1389 63.0337 271° West 495 570 33,400 442 Climbing FlightAware ADS-B (USTR / TJM)
Tue 09:51:03 AM 60.1408 62.6444 271° West 501 577 34,000 400 Climbing FlightAware ADS-B (USTR / TJM)
Tue 09:51:09 AM 60.1408 62.6178 270° West 501 577 34,000  Level FlightAware ADS-B (USTR / TJM)
Tue 09:51:35 AM 60.1412 62.4992 271° West 501 577 34,000  Level FlightAware ADS-B (USTR / TJM)
Tue 09:51:48 AM 60.1413 62.4363 270° West 498 573 34,000  Level FlightAware ADS-B (USTR / TJM)
Tue 09:52:05 AM 60.1414 62.3687 271° West 496 571 34,000  Level FlightAware ADS-B (USTR / TJM)
Tue 09:52:28 AM 60.1415 62.2648 270° West 495 570 34,000  Level FlightAware ADS-B (USTR / TJM)
Tue 09:52:35 AM 60.1416 62.2251 270° West 495 570 34,000  Level FlightAware ADS-B (USTR / TJM)
Tue 09:53:04 AM 60.1415 62.0874 270° West 495 570 34,000  Level FlightAware ADS-B (USTR / TJM)
Tue 09:53:09 AM 60.1414 62.0708 270° West 495 570 34,000  Level FlightAware ADS-B (USTR / TJM)
Tue 09:53:34 AM 60.1413 61.9515 270° West 495 570 34,000  Level FlightAware ADS-B (USTR / TJM)
Tue 09:53:49 AM 60.1411 61.8863 270° West 494 568 34,000  Level FlightAware ADS-B (USTR / TJM)
Tue 09:54:05 AM 60.1409 61.8082 270° West 494 568 34,000  Level FlightAware ADS-B (USTR / TJM)
Tue 09:54:27 AM 60.1407 61.7723 270° West 494 568 34,000  Level FlightAware ADS-B (USTR / TJM)
Tue 09:54:35 AM 60.1404 61.6817 270° West 494 568 34,000  Level FlightAware ADS-B (USTR / TJM)
Tue 09:54:42 AM 60.1403 61.6449 270° West 494 568 34,000 -35 Level FlightAware ADS-B (USTR / TJM)
Tue 11:28:45 AM 57.7123 39.1498 232° Southwest 432 497 30,700 -61 Descending FlightAware ADS-B
Tue 11:31:26 AM 57.5121 38.6723 232° Southwest 430 495 28,100 -848 Descending FlightAware ADS-B
Tue 11:31:56 AM 57.4729 38.5798 232° Southwest 432 497 28,000 -100 Descending FlightAware ADS-B
Tue 11:32:26 AM 57.4492 38.5241 232° Southwest 431 496 28,000  Level FlightAware ADS-B
Tue 11:32:57 AM 57.3978 38.4040 232° Southwest 431 496 28,000  Level FlightAware ADS-B
Tue 11:33:27 AM 57.3606 38.3172 232° Southwest 432 497 28,000 -700 Level FlightAware ADS-B
Tue 11:33:57 AM 57.3234 38.2310 231° Southwest 436 502 27,300 -2,300 Descending FlightAware ADS-B
Tue 11:34:27 AM 57.2854 38.1401 233° Southwest 450 518 25,700 -2,757 Descending FlightAware ADS-B
Tue 11:35:11 AM 57.2399 38.0287 233° Southwest 437 503 23,900 -2,400 Descending FlightAware ADS-B
Tue 11:35:57 AM 57.1760 37.8748 232° Southwest 420 483 22,100 -2,447 Descending FlightAware ADS-B
Tue 11:36:27 AM 57.1411 37.7924 230° Southwest 415 478 20,800 -2,267 Descending FlightAware ADS-B
Tue 11:36:42 AM 57.1191 37.7571 218° Southwest 404 465 20,400 -1,400 Descending FlightAware ADS-B
Tue 11:36:57 AM 57.0948 37.7346 201° Southwest 385 443 20,100 -1,565 Descending FlightAware ADS-B
Tue 11:37:28 AM 57.0433 37.7114 193° South 374 430 19,200 -1,808 Descending FlightAware ADS-B
Tue 11:38:10 AM 56.9771 37.6835 193° South 368 423 17,900 -1,773 Descending FlightAware ADS-B
Tue 11:38:56 AM 56.8970 37.6495 193° South 362 417 16,600 -1,611 Descending FlightAware ADS-B
Tue 11:39:58 AM 56.8015 37.6096 193° South 352 405 15,000 -1,302 Descending FlightAware ADS-B
Tue 11:40:42 AM 56.7464 37.5869 193° South 345 397 14,300 -904 Descending FlightAware ADS-B
Tue 11:45:10 AM 56.3767 37.3496 208° Southwest 295 339 10,300 -914 Descending FlightAware ADS-B
Tue 11:45:57 AM 56.2986 37.2733 208° Southwest 289 333 9,500 -1,169 Descending FlightAware ADS-B
Tue 11:46:27 AM 56.2631 37.2388 208° Southwest 285 328 8,800 -1,400 Descending FlightAware ADS-B
Tue 11:46:57 AM 56.2327 37.2095 208° Southwest 281 323 8,100 -1,585 Descending FlightAware ADS-B
Tue 11:47:20 AM 56.2025 37.1804 208° Southwest 279 321 7,400 -1,227 Descending FlightAware ADS-B
Tue 11:47:41 AM 56.1801 37.1588 208° Southwest 272 313 7,200 -649 Descending FlightAware ADS-B
Tue 11:47:57 AM 56.1628 37.1421 208° Southwest 262 302 7,000 -1,067 Descending FlightAware ADS-B
Tue 11:48:26 AM 56.1373 37.1176 208° Southwest 254 292 6,400 -1,200 Descending FlightAware ADS-B
Tue 11:48:42 AM 56.1174 37.0985 208° Southwest 256 295 6,100 -1,161 Descending FlightAware ADS-B
Tue 11:48:57 AM 56.1010 37.0828 208° Southwest 250 288 5,800 -1,286 Descending FlightAware ADS-B
Tue 11:49:24 AM 56.0733 37.0558 209° Southwest 252 290 5,200 -763 Descending FlightAware ADS-B
Tue 11:52:53 AM 55.9209 37.0615 76° East 185 213 2,800 -593 Descending FlightAware ADS-B
Tue 11:56:09 AM 55.9603 37.3230 75° East 134 154 1,200 -505 Descending FlightAware ADS-B
Tue 11:56:27 AM 55.9632 37.3428 75° East 138 159 1,000 -706 Descending FlightAware ADS-B
Tue 11:56:43 AM 55.9646 37.3519 75° East 136 157 800 -750 Descending FlightAware ADS-B
Tue 11:59:00 AM 55.9726 37.4146 77° East  Level Estimated
Tue 12:00:00 PM 55.9726 37.4146 North  Level Estimated
Tue 12:01:00 PM 55.9726 37.4146 North  Level Estimated
Tue 12:02:00 PM 55.9726 37.4146 North  Level Estimated

Login

Don't have an account? Register now (free) for customized features, flight alerts, and more!